createdAt,value
2023-04-05T12:15:24.414Z,1020.9
2023-04-05T12:26:58.026Z,1020.8
2023-04-05T13:00:22.435Z,1020.2
2023-04-05T18:14:33.475Z,1020.5
2023-04-05T18:42:06.909Z,1020.9
2023-04-05T18:48:07.565Z,1020.9
2023-04-05T18:53:31.673Z,1021
2023-04-05T18:58:58.003Z,1021.2
2023-04-05T19:04:44.178Z,1021.3
2023-04-05T19:10:11.200Z,1021.4
2023-04-05T19:15:33.928Z,1021.5
2023-04-05T19:21:06.862Z,1021.6
2023-04-05T19:26:41.671Z,1021.6
2023-04-05T19:32:21.825Z,1021.6
2023-04-05T19:37:51.673Z,1021.9
2023-04-05T19:43:23.224Z,1021.9
2023-04-05T19:49:06.910Z,1022.1
2023-04-05T19:54:22.515Z,1022.1
2023-04-05T20:00:10.939Z,1022
2023-04-05T20:05:50.697Z,1022
2023-04-05T20:11:06.276Z,1022.2
2023-04-05T20:16:49.885Z,1022.3
2023-04-05T20:27:56.191Z,1022.1
2023-04-05T20:33:27.011Z,1022.1
2023-04-05T20:38:59.955Z,1022.2
2023-04-05T21:12:28.590Z,1022.3
2023-04-05T21:17:52.337Z,1022.3
2023-04-05T21:23:26.439Z,1022.2
2023-04-05T21:29:07.159Z,1022.4
2023-04-05T21:34:58.797Z,1022.3
2023-04-05T21:40:25.480Z,1022.5
2023-04-05T21:51:21.010Z,1022.5
2023-04-05T21:57:01.939Z,1022.5
2023-04-05T22:02:36.843Z,1022.5
2023-04-05T22:07:56.352Z,1022.5
2023-04-05T22:24:52.297Z,1022.6
2023-04-05T22:30:08.452Z,1022.9
2023-04-05T22:41:17.573Z,1023
2023-04-05T22:46:57.665Z,1023.2
2023-04-05T22:52:29.061Z,1023.1
2023-04-05T22:57:55.774Z,1023.2
2023-04-05T23:03:25.790Z,1023.3
2023-04-05T23:08:56.561Z,1023.3
2023-04-05T23:14:28.835Z,1023.5
2023-04-05T23:20:13.464Z,1023.2
2023-04-05T23:25:35.359Z,1023.3
2023-04-05T23:31:07.516Z,1023.1
2023-04-05T23:36:40.361Z,1023
2023-04-05T23:42:28.102Z,1023.1
2023-04-05T23:48:03.353Z,1023.5
2023-04-05T23:53:35.379Z,1023.5
2023-04-05T23:59:06.129Z,1023.5
